createdAt,value
2019-03-22T00:02:00.585Z,26.43
2019-03-22T00:04:29.048Z,25.67
2019-03-22T00:06:57.555Z,25.60
2019-03-22T00:09:26.019Z,24.90
2019-03-22T00:11:54.550Z,24.60
2019-03-22T00:14:23.063Z,28.30
2019-03-22T00:16:51.536Z,27.20
2019-03-22T00:19:20.004Z,26.40
2019-03-22T00:21:48.477Z,25.70
2019-03-22T00:24:16.940Z,23.77
2019-03-22T00:26:45.478Z,23.10
2019-03-22T00:29:13.969Z,25.30
2019-03-22T00:31:42.434Z,23.97
2019-03-22T00:34:10.889Z,23.67
2019-03-22T00:36:39.386Z,24.93
2019-03-22T00:39:07.937Z,21.57
2019-03-22T00:41:36.396Z,23.37
2019-03-22T00:44:04.909Z,22.30
2019-03-22T00:46:33.385Z,21.67
2019-03-22T00:49:01.859Z,23.50
2019-03-22T00:51:30.346Z,23.73
2019-03-22T00:53:58.797Z,20.50
2019-03-22T00:56:27.268Z,22.53
2019-03-22T00:58:55.769Z,20.90
2019-03-22T01:01:24.301Z,24.10
2019-03-22T01:03:52.769Z,19.07
2019-03-22T01:06:21.272Z,19.87
2019-03-22T01:08:49.736Z,18.57
2019-03-22T01:11:18.198Z,16.97
2019-03-22T01:13:46.683Z,17.47
2019-03-22T01:16:15.153Z,20.10
2019-03-22T01:18:43.608Z,20.07
2019-03-22T01:21:12.120Z,19.10
2019-03-22T01:23:40.587Z,18.10
2019-03-22T01:26:09.056Z,17.97
2019-03-22T01:28:38.588Z,18.50
2019-03-22T01:31:07.051Z,17.77
2019-03-22T01:33:35.521Z,20.40
2019-03-22T01:36:04.199Z,18.73
2019-03-22T01:38:32.715Z,16.90
2019-03-22T01:41:01.176Z,17.20
2019-03-22T01:43:29.684Z,17.57
2019-03-22T01:45:58.157Z,16.83
2019-03-22T01:48:26.617Z,17.00
2019-03-22T01:50:55.116Z,15.40
2019-03-22T01:53:23.574Z,16.10
2019-03-22T01:55:52.025Z,17.13
2019-03-22T01:58:20.603Z,15.23
2019-03-22T02:00:49.065Z,16.63
2019-03-22T02:03:17.529Z,14.90
2019-03-22T02:05:46.035Z,14.73
2019-03-22T02:08:14.535Z,18.03
2019-03-22T02:10:43.002Z,15.63
2019-03-22T02:13:11.502Z,16.20
2019-03-22T02:15:39.963Z,15.67
2019-03-22T02:18:08.592Z,16.33
2019-03-22T02:20:37.093Z,15.10
2019-03-22T02:23:05.544Z,13.50
2019-03-22T02:25:33.993Z,15.30
2019-03-22T02:28:04.428Z,17.50
2019-03-22T02:30:32.951Z,15.17
2019-03-22T02:33:01.491Z,14.40
2019-03-22T02:35:29.999Z,16.30
2019-03-22T02:37:58.449Z,15.63
2019-03-22T02:40:26.920Z,16.87
2019-03-22T02:42:55.493Z,15.93
2019-03-22T02:45:23.967Z,15.40
2019-03-22T02:47:52.435Z,14.87
2019-03-22T02:50:20.917Z,17.30
2019-03-22T02:52:49.397Z,19.37
2019-03-22T02:55:17.881Z,19.30
2019-03-22T02:57:46.474Z,18.63
2019-03-22T03:00:16.470Z,17.83
2019-03-22T03:02:45.138Z,18.73
2019-03-22T03:05:15.169Z,19.00
2019-03-22T03:07:43.781Z,18.80
2019-03-22T03:10:16.390Z,20.40
2019-03-22T03:12:45.275Z,20.23
2019-03-22T03:15:16.764Z,20.10
2019-03-22T03:17:45.366Z,21.07
2019-03-22T03:20:15.314Z,20.63
2019-03-22T03:22:43.775Z,19.17
2019-03-22T03:25:12.980Z,19.93
2019-03-22T03:27:41.466Z,19.73
2019-03-22T03:30:20.564Z,21.57
2019-03-22T03:32:49.333Z,21.03
2019-03-22T03:35:18.724Z,20.93
2019-03-22T03:37:47.264Z,21.33
2019-03-22T03:40:16.299Z,18.97
2019-03-22T03:42:44.774Z,23.37
2019-03-22T03:45:37.583Z,21.47
2019-03-22T03:48:08.587Z,22.53
2019-03-22T03:50:37.175Z,24.17
2019-03-22T03:53:06.441Z,20.33
2019-03-22T03:55:34.911Z,24.50
2019-03-22T03:58:03.546Z,22.07
2019-03-22T04:00:32.047Z,23.47
2019-03-22T04:03:00.525Z,20.00
2019-03-22T04:05:29.060Z,21.80
2019-03-22T04:07:57.562Z,22.40
2019-03-22T04:10:26.095Z,23.40
2019-03-22T04:12:54.559Z,22.10
2019-03-22T04:15:23.057Z,20.77
2019-03-22T04:17:51.546Z,20.63
2019-03-22T04:20:20.001Z,21.57
2019-03-22T04:22:48.529Z,22.33
2019-03-22T04:25:17.009Z,22.40
2019-03-22T04:27:45.504Z,23.47
2019-03-22T04:30:14.072Z,24.80
2019-03-22T04:32:42.583Z,21.87
2019-03-22T04:35:12.180Z,23.23
2019-03-22T04:37:40.692Z,23.70
2019-03-22T04:40:25.797Z,24.07
2019-03-22T04:42:54.288Z,22.83
2019-03-22T04:45:23.204Z,23.10
2019-03-22T04:48:02.828Z,22.67
2019-03-22T04:50:32.560Z,22.87
2019-03-22T04:53:01.092Z,23.70
2019-03-22T04:55:29.784Z,22.67
2019-03-22T04:57:58.993Z,21.97
2019-03-22T05:00:27.613Z,22.90
2019-03-22T05:02:56.197Z,21.27
2019-03-22T05:05:25.129Z,22.87
2019-03-22T05:07:53.662Z,23.97
2019-03-22T05:10:23.155Z,23.67
2019-03-22T05:12:52.494Z,23.80
2019-03-22T05:15:22.044Z,21.40
2019-03-22T05:17:50.543Z,24.60
2019-03-22T05:20:20.459Z,22.17
2019-03-22T05:22:51.067Z,22.53
2019-03-22T05:25:20.617Z,23.70
2019-03-22T05:27:49.989Z,23.33
2019-03-22T05:30:56.933Z,23.00
2019-03-22T05:33:25.382Z,22.30
2019-03-22T05:35:53.864Z,23.60
2019-03-22T05:38:24.119Z,23.73
2019-03-22T05:40:52.590Z,24.73
2019-03-22T05:43:21.091Z,24.13
2019-03-22T05:45:49.605Z,26.67
2019-03-22T05:48:18.089Z,24.83
2019-03-22T05:50:46.547Z,25.07
2019-03-22T05:53:15.080Z,26.43
2019-03-22T05:55:43.556Z,27.07
2019-03-22T05:58:12.036Z,24.90
2019-03-22T06:00:40.534Z,24.83
2019-03-22T06:03:09.136Z,26.47
2019-03-22T06:05:37.610Z,26.73
2019-03-22T06:08:06.292Z,26.27
2019-03-22T06:10:34.763Z,22.20
2019-03-22T06:13:03.240Z,25.30
2019-03-22T06:15:31.736Z,25.50
2019-03-22T06:18:00.216Z,23.67
2019-03-22T06:20:28.690Z,21.67
2019-03-22T06:22:57.191Z,23.37
2019-03-22T06:25:25.675Z,24.20
2019-03-22T06:27:54.135Z,23.13
2019-03-22T06:30:22.673Z,21.20
2019-03-22T06:32:51.154Z,20.03
2019-03-22T06:35:19.625Z,28.43
2019-03-22T06:37:48.123Z,28.20
2019-03-22T06:40:16.707Z,28.27
2019-03-22T06:42:45.165Z,24.10
2019-03-22T06:45:13.851Z,20.70
2019-03-22T06:47:42.322Z,20.90
2019-03-22T06:50:11.199Z,15.93
2019-03-22T06:52:39.689Z,17.40
2019-03-22T06:55:08.320Z,18.70
2019-03-22T06:57:36.797Z,15.67
2019-03-22T07:00:07.710Z,18.20
2019-03-22T07:02:36.190Z,17.70
2019-03-22T07:05:06.503Z,19.30
2019-03-22T07:07:35.017Z,20.27
2019-03-22T07:10:05.228Z,19.13
2019-03-22T07:12:33.712Z,19.30
2019-03-22T07:15:02.210Z,20.20
2019-03-22T07:17:30.675Z,17.43
2019-03-22T07:19:59.138Z,19.10
2019-03-22T07:22:27.651Z,19.97
2019-03-22T07:24:56.116Z,17.97
2019-03-22T07:27:24.805Z,22.17
2019-03-22T07:29:53.301Z,19.97
2019-03-22T07:32:21.768Z,19.90
2019-03-22T07:34:50.245Z,21.80
2019-03-22T07:37:18.780Z,19.77
2019-03-22T07:39:47.396Z,23.17
2019-03-22T07:42:17.558Z,23.30
2019-03-22T07:44:46.355Z,24.07
2019-03-22T07:47:14.816Z,25.80
2019-03-22T07:49:43.302Z,24.00
2019-03-22T07:52:11.811Z,24.87
2019-03-22T07:54:40.280Z,23.90
2019-03-22T07:57:08.757Z,23.67
2019-03-22T07:59:37.263Z,25.57
2019-03-22T08:02:05.806Z,24.90
2019-03-22T08:04:34.280Z,22.27
2019-03-22T08:07:02.855Z,24.80
2019-03-22T08:09:31.338Z,26.20
2019-03-22T08:11:59.975Z,27.07
2019-03-22T08:14:28.491Z,28.17
2019-03-22T08:16:56.954Z,26.83
2019-03-22T08:19:25.436Z,27.20
2019-03-22T08:21:53.950Z,24.10
2019-03-22T08:24:22.429Z,28.90
2019-03-22T08:26:50.943Z,29.37
2019-03-22T08:29:19.430Z,29.13
2019-03-22T08:31:47.884Z,29.87
2019-03-22T08:34:16.411Z,28.00
2019-03-22T08:36:44.938Z,25.80
2019-03-22T08:39:13.438Z,29.70
2019-03-22T08:41:41.892Z,28.53
2019-03-22T08:44:10.626Z,27.87
2019-03-22T08:46:39.287Z,26.67
2019-03-22T08:49:09.488Z,25.97
2019-03-22T08:51:37.970Z,27.10
2019-03-22T08:54:06.513Z,24.77
2019-03-22T08:56:36.210Z,25.07
2019-03-22T08:59:04.917Z,23.67
2019-03-22T09:01:33.443Z,23.10
2019-03-22T09:04:01.943Z,22.20
2019-03-22T09:06:30.524Z,23.73
2019-03-22T09:08:58.952Z,24.60
2019-03-22T09:11:27.432Z,22.80
2019-03-22T09:13:55.931Z,22.40
2019-03-22T09:16:24.415Z,18.70
2019-03-22T09:18:52.883Z,13.33
2019-03-22T09:21:21.463Z,13.90
2019-03-22T09:23:50.009Z,11.80
2019-03-22T09:26:20.074Z,12.47
2019-03-22T09:28:48.889Z,11.10
2019-03-22T09:31:17.355Z,12.73
2019-03-22T09:33:45.871Z,11.27
2019-03-22T09:36:14.410Z,10.50
2019-03-22T09:38:44.611Z,10.80
2019-03-22T09:41:13.074Z,9.87
2019-03-22T09:43:41.557Z,11.23
2019-03-22T09:46:11.119Z,9.50
2019-03-22T09:48:39.615Z,11.40
2019-03-22T09:51:08.085Z,10.87
2019-03-22T09:53:36.636Z,11.70
2019-03-22T09:56:05.130Z,11.33
2019-03-22T09:58:33.601Z,11.90
2019-03-22T10:01:02.137Z,11.10
2019-03-22T10:03:30.670Z,10.97
2019-03-22T10:05:59.136Z,9.77
2019-03-22T10:08:27.620Z,10.90
2019-03-22T10:10:56.148Z,10.23
2019-03-22T10:13:24.636Z,11.60
2019-03-22T10:15:53.102Z,11.53
2019-03-22T10:18:21.618Z,11.43
2019-03-22T10:20:50.087Z,10.90
2019-03-22T10:23:18.566Z,10.60
2019-03-22T10:25:47.060Z,9.60
2019-03-22T10:28:15.561Z,10.40
2019-03-22T10:30:44.056Z,10.70
2019-03-22T10:33:22.102Z,10.40
2019-03-22T10:35:42.749Z,9.77
2019-03-22T10:38:16.434Z,11.47
2019-03-22T10:40:41.451Z,10.80
2019-03-22T10:43:09.909Z,11.70
2019-03-22T10:45:38.369Z,10.70
2019-03-22T10:48:07.100Z,9.77
2019-03-22T10:50:35.595Z,10.93
2019-03-22T10:53:04.092Z,12.00
2019-03-22T10:55:35.356Z,12.23
2019-03-22T10:58:02.745Z,12.43
2019-03-22T11:00:31.219Z,9.83
2019-03-22T11:02:59.814Z,10.17
2019-03-22T11:05:28.274Z,11.30
2019-03-22T11:07:56.781Z,10.27
2019-03-22T11:10:25.449Z,10.47
2019-03-22T11:12:53.927Z,10.77
2019-03-22T11:15:23.981Z,11.40
2019-03-22T11:17:52.813Z,10.20
2019-03-22T11:20:21.272Z,10.83
2019-03-22T11:22:49.745Z,12.40
2019-03-22T11:25:18.263Z,11.10
2019-03-22T11:27:46.740Z,10.37
2019-03-22T11:30:19.291Z,9.70
2019-03-22T11:32:47.881Z,11.40
2019-03-22T11:35:16.420Z,9.67
2019-03-22T11:37:44.897Z,10.17
2019-03-22T11:40:15.643Z,9.30
2019-03-22T11:42:44.115Z,9.73
2019-03-22T11:45:18.767Z,8.77
2019-03-22T11:47:47.339Z,8.40
2019-03-22T11:50:16.169Z,10.10
2019-03-22T11:52:44.697Z,10.57
2019-03-22T11:55:14.441Z,9.87
2019-03-22T11:57:42.914Z,9.60
2019-03-22T12:00:17.059Z,11.20
2019-03-22T12:02:45.578Z,10.30
2019-03-22T12:05:15.098Z,10.40
2019-03-22T12:07:43.571Z,8.63
2019-03-22T12:10:14.684Z,9.03
2019-03-22T12:12:43.224Z,8.30
2019-03-22T12:15:14.144Z,9.23
2019-03-22T12:17:42.631Z,8.13
2019-03-22T12:20:22.187Z,8.80
2019-03-22T12:22:50.834Z,9.20
2019-03-22T12:25:24.460Z,9.13
2019-03-22T12:27:52.928Z,8.50
2019-03-22T12:30:21.539Z,9.30
2019-03-22T12:32:50.018Z,9.27
2019-03-22T12:35:18.863Z,8.07
2019-03-22T12:37:47.373Z,7.80
2019-03-22T12:40:22.910Z,8.93
2019-03-22T12:42:51.418Z,10.50
2019-03-22T12:45:28.194Z,8.63
2019-03-22T12:47:56.770Z,8.50
2019-03-22T12:50:25.662Z,8.57
2019-03-22T12:52:54.137Z,8.37
2019-03-22T12:55:22.639Z,8.37
2019-03-22T12:57:51.178Z,8.80
2019-03-22T13:00:23.539Z,8.30
2019-03-22T13:02:52.429Z,8.47
2019-03-22T13:05:22.063Z,8.67
2019-03-22T13:07:50.877Z,8.97
2019-03-22T13:10:27.427Z,8.03
2019-03-22T13:12:56.029Z,8.60
2019-03-22T13:15:24.494Z,8.90
2019-03-22T13:17:53.020Z,8.87
2019-03-22T13:20:21.628Z,9.47
2019-03-22T13:22:50.098Z,8.53
2019-03-22T13:25:21.209Z,9.50
2019-03-22T13:27:49.850Z,9.03
2019-03-22T13:30:30.546Z,8.60
2019-03-22T13:32:59.174Z,8.63
2019-03-22T13:35:27.723Z,8.93
2019-03-22T13:37:56.382Z,8.53
2019-03-22T13:40:24.849Z,7.77
2019-03-22T13:42:53.397Z,8.50
2019-03-22T13:45:21.968Z,9.00
2019-03-22T13:47:50.484Z,7.70
2019-03-22T13:50:18.996Z,8.90
2019-03-22T13:52:48.573Z,8.47
2019-03-22T13:55:17.041Z,8.30
2019-03-22T13:57:45.510Z,8.87
2019-03-22T14:00:18.128Z,8.40
2019-03-22T14:02:46.596Z,7.83
2019-03-22T14:05:15.215Z,8.37
2019-03-22T14:07:43.803Z,6.67
2019-03-22T14:10:31.345Z,8.67
2019-03-22T14:13:01.073Z,8.30
2019-03-22T14:15:29.927Z,9.17
2019-03-22T14:17:58.860Z,8.10
2019-03-22T14:20:27.363Z,8.40
2019-03-22T14:22:55.908Z,9.80
2019-03-22T14:25:24.397Z,11.43
2019-03-22T14:27:53.822Z,12.37
2019-03-22T14:30:22.283Z,9.03
2019-03-22T14:32:50.753Z,9.60
2019-03-22T14:35:19.265Z,8.63
2019-03-22T14:37:47.751Z,8.20
2019-03-22T14:40:16.305Z,8.00
2019-03-22T14:42:44.847Z,8.87
2019-03-22T14:45:14.873Z,8.80
2019-03-22T14:47:43.713Z,9.33
2019-03-22T14:50:12.293Z,10.17
2019-03-22T14:52:40.755Z,9.23
2019-03-22T14:55:09.448Z,13.53
2019-03-22T14:57:47.836Z,9.80
2019-03-22T15:00:10.590Z,42.40
2019-03-22T15:02:39.059Z,25.80
2019-03-22T15:05:07.621Z,14.07
2019-03-22T15:07:36.098Z,13.57
2019-03-22T15:10:07.402Z,11.60
2019-03-22T15:12:35.920Z,12.03
2019-03-22T15:15:08.447Z,10.97
2019-03-22T15:17:38.594Z,9.60
2019-03-22T15:20:12.141Z,11.77
2019-03-22T15:22:47.973Z,11.13
2019-03-22T15:25:20.562Z,10.50
2019-03-22T15:28:08.925Z,10.40
2019-03-22T15:30:57.243Z,12.10
2019-03-22T15:33:43.583Z,15.50
2019-03-22T15:36:25.780Z,12.47
2019-03-22T15:38:56.063Z,12.43
2019-03-22T15:41:24.557Z,14.03
2019-03-22T15:43:53.086Z,11.83
2019-03-22T15:46:21.601Z,13.70
2019-03-22T15:48:50.103Z,12.63
2019-03-22T15:51:18.611Z,11.80
2019-03-22T15:53:47.082Z,11.73
2019-03-22T15:56:16.587Z,12.10
2019-03-22T15:58:45.100Z,12.57
2019-03-22T16:01:13.582Z,11.70
2019-03-22T16:03:44.434Z,11.30
2019-03-22T16:06:12.360Z,10.90
2019-03-22T16:08:40.853Z,12.60
2019-03-22T16:11:09.350Z,11.97
2019-03-22T16:13:37.843Z,11.13
2019-03-22T16:16:06.302Z,13.17
2019-03-22T16:18:34.756Z,13.90
2019-03-22T16:21:03.270Z,13.50
2019-03-22T16:23:31.731Z,13.17
2019-03-22T16:26:00.199Z,14.23
2019-03-22T16:28:28.701Z,12.73
2019-03-22T16:30:57.183Z,11.50
2019-03-22T16:33:25.654Z,13.30
2019-03-22T16:35:54.173Z,12.93
2019-03-22T16:38:22.790Z,12.50
2019-03-22T16:40:51.251Z,12.20
2019-03-22T16:43:19.742Z,12.73
2019-03-22T16:45:48.217Z,13.63
2019-03-22T16:48:16.678Z,14.40
2019-03-22T16:50:45.172Z,13.57
2019-03-22T16:53:13.646Z,13.50
2019-03-22T16:55:42.110Z,14.77
2019-03-22T16:58:10.635Z,13.07
2019-03-22T17:00:39.091Z,14.37
2019-03-22T17:03:07.631Z,12.83
2019-03-22T17:05:36.133Z,15.80
2019-03-22T17:08:04.769Z,15.13
2019-03-22T17:10:33.241Z,16.10
2019-03-22T17:13:01.751Z,17.27
2019-03-22T17:15:30.230Z,17.57
2019-03-22T17:17:58.688Z,16.70
2019-03-22T17:20:27.192Z,15.57
2019-03-22T17:22:55.659Z,16.90
2019-03-22T17:25:24.134Z,18.23
2019-03-22T17:27:52.624Z,15.30
2019-03-22T17:30:21.653Z,15.07
2019-03-22T17:32:50.133Z,14.83
2019-03-22T17:35:18.642Z,16.60
2019-03-22T17:37:47.112Z,17.23
2019-03-22T17:40:15.652Z,18.50
2019-03-22T17:42:44.170Z,17.30
2019-03-22T17:45:15.628Z,18.23
2019-03-22T17:47:44.147Z,17.57
2019-03-22T17:50:13.783Z,18.37
2019-03-22T17:52:42.326Z,20.57
2019-03-22T17:55:11.537Z,18.60
2019-03-22T17:57:41.006Z,18.67
2019-03-22T18:00:30.384Z,20.23
2019-03-22T18:02:58.887Z,17.37
2019-03-22T18:05:27.354Z,19.90
2019-03-22T18:07:55.821Z,19.57
2019-03-22T18:10:24.341Z,20.20
2019-03-22T18:12:52.818Z,18.30
2019-03-22T18:15:21.279Z,20.30
2019-03-22T18:17:49.818Z,19.50
2019-03-22T18:20:18.271Z,16.40
2019-03-22T18:22:46.743Z,20.00
2019-03-22T18:25:15.945Z,21.37
2019-03-22T18:27:44.364Z,19.77
2019-03-22T18:30:14.060Z,20.00
2019-03-22T18:32:42.546Z,18.83
2019-03-22T18:35:11.083Z,18.77
2019-03-22T18:37:39.544Z,22.97
2019-03-22T18:40:12.759Z,19.73
2019-03-22T18:42:41.230Z,17.70
2019-03-22T18:45:11.952Z,16.00
2019-03-22T18:47:41.193Z,19.93
2019-03-22T18:50:10.887Z,19.53
2019-03-22T18:52:39.381Z,17.87
2019-03-22T18:55:08.211Z,16.40
2019-03-22T18:57:36.753Z,20.10
2019-03-22T19:00:08.642Z,17.53
2019-03-22T19:02:37.174Z,21.03
2019-03-22T19:05:07.488Z,17.73
2019-03-22T19:07:35.968Z,17.70
2019-03-22T19:10:15.290Z,20.30
2019-03-22T19:12:43.769Z,19.00
2019-03-22T19:15:13.499Z,21.03
2019-03-22T19:17:42.074Z,21.90
2019-03-22T19:20:14.730Z,20.77
2019-03-22T19:22:43.192Z,22.20
2019-03-22T19:25:14.324Z,20.73
2019-03-22T19:27:42.354Z,21.47
2019-03-22T19:30:15.733Z,19.10
2019-03-22T19:32:44.314Z,22.17
2019-03-22T19:35:13.218Z,22.07
2019-03-22T19:37:41.683Z,22.80
2019-03-22T19:40:12.229Z,20.87
2019-03-22T19:42:40.684Z,21.17
2019-03-22T19:45:11.192Z,22.77
2019-03-22T19:47:39.706Z,25.43
2019-03-22T19:50:13.741Z,20.53
2019-03-22T19:52:43.019Z,21.80
2019-03-22T19:55:11.712Z,22.40
2019-03-22T19:57:40.192Z,23.50
2019-03-22T20:00:19.132Z,20.97
2019-03-22T20:02:49.297Z,24.40
2019-03-22T20:05:29.255Z,20.80
2019-03-22T20:07:57.795Z,25.30
2019-03-22T20:10:26.266Z,25.33
2019-03-22T20:12:54.769Z,23.73
2019-03-22T20:15:23.222Z,23.90
2019-03-22T20:17:51.722Z,23.87
2019-03-22T20:20:20.281Z,23.20
2019-03-22T20:22:48.768Z,22.17
2019-03-22T20:25:17.225Z,28.10
2019-03-22T20:27:45.752Z,26.60
2019-03-22T20:30:18.588Z,23.70
2019-03-22T20:32:47.047Z,22.83
2019-03-22T20:35:17.070Z,27.00
2019-03-22T20:37:45.682Z,27.33
2019-03-22T20:40:16.243Z,24.37
2019-03-22T20:42:44.790Z,26.27
2019-03-22T20:45:23.531Z,28.30
2019-03-22T20:47:43.625Z,26.77
2019-03-22T20:50:12.202Z,22.53
2019-03-22T20:52:40.687Z,27.10
2019-03-22T20:55:09.902Z,22.83
2019-03-22T20:57:38.423Z,21.47
2019-03-22T21:00:12.678Z,23.63
2019-03-22T21:02:41.332Z,24.17
2019-03-22T21:05:10.461Z,24.33
2019-03-22T21:07:38.915Z,24.93
2019-03-22T21:10:08.604Z,25.00
2019-03-22T21:12:37.121Z,25.90
2019-03-22T21:15:08.282Z,22.47
2019-03-22T21:17:36.762Z,24.63
2019-03-22T21:20:09.713Z,24.00
2019-03-22T21:22:38.357Z,26.07
2019-03-22T21:25:11.012Z,23.80
2019-03-22T21:27:39.523Z,23.40
2019-03-22T21:30:15.398Z,27.53
2019-03-22T21:32:45.475Z,25.93
2019-03-22T21:35:22.627Z,24.83
2019-03-22T21:37:44.400Z,25.63
2019-03-22T21:40:12.944Z,25.47
2019-03-22T21:42:41.467Z,26.90
2019-03-22T21:45:11.066Z,24.27
2019-03-22T21:47:40.102Z,26.53
2019-03-22T21:50:11.722Z,27.90
2019-03-22T21:52:40.183Z,26.70
2019-03-22T21:55:09.183Z,28.27
2019-03-22T21:57:37.672Z,28.20
2019-03-22T22:00:08.992Z,25.40
2019-03-22T22:02:37.466Z,28.93
2019-03-22T22:05:07.523Z,26.87
2019-03-22T22:07:36.002Z,29.13
2019-03-22T22:10:09.327Z,25.60
2019-03-22T22:12:38.028Z,28.43
2019-03-22T22:15:09.575Z,26.90
2019-03-22T22:17:39.328Z,28.77
2019-03-22T22:20:07.968Z,28.30
2019-03-22T22:22:36.431Z,30.20
2019-03-22T22:25:06.796Z,28.50
2019-03-22T22:27:35.489Z,29.87
2019-03-22T22:30:08.968Z,31.70
2019-03-22T22:32:37.447Z,30.37
2019-03-22T22:35:07.692Z,30.50
2019-03-22T22:37:36.156Z,29.93
2019-03-22T22:40:12.282Z,28.40
2019-03-22T22:42:40.748Z,27.00
2019-03-22T22:45:10.905Z,32.07
2019-03-22T22:47:39.464Z,30.40
2019-03-22T22:50:11.782Z,33.43
2019-03-22T22:52:40.236Z,30.33
2019-03-22T22:55:10.041Z,32.47
2019-03-22T22:57:38.497Z,31.13
2019-03-22T23:00:15.337Z,29.80
2019-03-22T23:02:44.458Z,30.03
2019-03-22T23:05:14.027Z,30.03
2019-03-22T23:07:42.847Z,32.20
2019-03-22T23:10:12.837Z,29.90
2019-03-22T23:12:42.049Z,32.33
2019-03-22T23:15:10.905Z,31.00
2019-03-22T23:17:39.372Z,29.93
2019-03-22T23:20:09.813Z,30.13
2019-03-22T23:22:38.282Z,29.07
2019-03-22T23:25:07.419Z,28.10
2019-03-22T23:27:36.869Z,28.40
2019-03-22T23:30:07.368Z,30.90
2019-03-22T23:32:35.864Z,29.30
2019-03-22T23:35:05.881Z,32.33
2019-03-22T23:37:34.357Z,32.83
2019-03-22T23:40:03.086Z,34.70
2019-03-22T23:42:31.596Z,32.63
2019-03-22T23:45:00.172Z,30.47
2019-03-22T23:47:28.724Z,32.20
2019-03-22T23:49:57.224Z,35.67
2019-03-22T23:52:25.687Z,32.63
2019-03-22T23:54:54.148Z,32.47
2019-03-22T23:57:22.657Z,32.30
2019-03-22T23:59:51.119Z,31.37
